Denver, Tennessee
Current Conditions -  °F | °C
As of 8:15 AM on Friday 19 Dec 2014 (Local Time) from KPVE Reporting Station
Overcast Overcast  
Wind Chill: 36°   Ceiling: 3800
Heat Index: 36°   Visibility: 10mi
Dew Point: 28°   Wind: 3mph
Humidity: 75%   Direction: 40°NE
Pressure: 30.26"   Gusts: NA
Location:  36.0056°N, 87.9448°W
Report Text: KPVE 191415Z AUTO 04003KT 10SM OVC038 02/M02 A3026 RMK
Loading
Personal Weather Stations






























Interactive Weather Map New forecast layout! Learn more

10-Day Weather Forecast

Advertisements
Track Severe Weather on mobile